Time;durP1;ratioP1;P1;durP2;ratioP2;P2;SDS_P1;SDS_P2;PMS_P1;PMS_P2;Temp;Humidity;BMP_temperature;BMP_pressure;BME280_temperature;BME280_humidity;BME280_pressure;Samples;Min_cycle;Max_cycle;Signal;HPM_P1;HPM_P2
2023/06/19 00:03:32;;;;;;;5.47;3.03;;;;;;;21.09;54.13;99344.41;10499790;28;20519;-66
2023/06/19 00:08:36;;;;;;;4.97;2.85;;;;;;;21.20;53.99;99337.06;10500312;28;20395;-66
2023/06/19 00:13:38;;;;;;;5.05;2.80;;;;;;;21.15;54.06;99331.44;10506637;28;20078;-66
2023/06/19 00:18:39;;;;;;;4.40;2.85;;;;;;;21.01;54.60;99336.47;10501144;28;20165;-66
2023/06/19 00:23:42;;;;;;;4.82;3.00;;;;;;;20.65;54.92;99331.78;10512553;28;20308;-66
2023/06/19 00:28:45;;;;;;;4.75;2.95;;;;;;;20.60;55.46;99332.28;10499397;28;20127;-66
2023/06/19 00:33:50;;;;;;;4.43;3.08;;;;;;;20.42;55.72;99339.59;10478605;28;20408;-66
2023/06/19 00:38:52;;;;;;;5.07;3.03;;;;;;;20.34;55.59;99336.94;10449754;28;20044;-66
2023/06/19 00:43:54;;;;;;;6.28;3.10;;;;;;;20.10;56.14;99336.97;10502024;28;20032;-66
2023/06/19 00:48:56;;;;;;;4.57;2.95;;;;;;;19.91;56.37;99330.16;10493965;28;20476;-66
2023/06/19 00:53:57;;;;;;;4.97;3.08;;;;;;;19.90;56.37;99343.59;10477342;28;20566;-67
2023/06/19 00:58:59;;;;;;;7.05;3.08;;;;;;;19.99;56.09;99340.78;10502415;28;20048;-66
2023/06/19 01:04:01;;;;;;;4.40;2.90;;;;;;;19.89;56.48;99361.34;10495561;28;20040;-66
2023/06/19 01:09:12;;;;;;;4.57;2.92;;;;;;;19.91;57.66;99363.84;10494603;28;20105;-66
2023/06/19 01:14:21;;;;;;;5.13;3.30;;;;;;;19.81;57.73;99357.81;10493433;28;20585;-66
2023/06/19 01:19:25;;;;;;;5.00;3.00;;;;;;;19.97;56.56;99357.88;10495781;28;20153;-66
2023/06/19 01:24:27;;;;;;;4.65;2.90;;;;;;;19.89;56.95;99363.16;10495976;28;20046;-66
2023/06/19 01:29:29;;;;;;;5.00;3.20;;;;;;;19.86;56.72;99360.84;10475923;28;20200;-66
2023/06/19 01:34:34;;;;;;;4.80;3.00;;;;;;;19.73;57.25;99369.25;10463842;28;20047;-66
2023/06/19 01:39:41;;;;;;;4.97;2.90;;;;;;;19.61;57.34;99370.56;10498158;28;20040;-66
2023/06/19 01:44:45;;;;;;;5.70;3.00;;;;;;;19.48;57.09;99387.94;10495411;28;20051;-66
2023/06/19 01:49:49;;;;;;;5.18;3.40;;;;;;;19.46;57.44;99382.78;10502361;28;20040;-66
2023/06/19 01:54:51;;;;;;;4.22;2.70;;;;;;;19.75;56.80;99374.38;10462981;28;20428;-66
2023/06/19 01:59:53;;;;;;;4.88;2.92;;;;;;;19.80;56.63;99361.47;10494276;28;20434;-65
2023/06/19 02:04:56;;;;;;;5.05;3.05;;;;;;;19.75;56.83;99366.44;10469450;28;20178;-67
2023/06/19 02:09:57;;;;;;;5.47;3.42;;;;;;;19.95;56.62;99375.81;10483861;28;20143;-66
2023/06/19 02:14:59;;;;;;;5.05;3.10;;;;;;;20.05;56.49;99377.28;10509839;28;20085;-66
2023/06/19 02:20:01;;;;;;;5.15;3.10;;;;;;;20.01;56.53;99386.56;10492525;28;20040;-66
2023/06/19 02:25:03;;;;;;;4.28;2.90;;;;;;;20.01;56.80;99396.38;10491341;28;20032;-66
2023/06/19 02:30:06;;;;;;;4.82;3.13;;;;;;;20.01;56.54;99388.41;10507201;28;20439;-66
2023/06/19 02:35:10;;;;;;;3.90;2.70;;;;;;;19.94;56.90;99388.25;10528293;28;20051;-66
2023/06/19 02:40:12;;;;;;;5.40;3.30;;;;;;;20.02;56.37;99390.06;10489363;28;20040;-66
2023/06/19 02:45:16;;;;;;;5.25;2.85;;;;;;;20.05;56.21;99392.41;10511403;28;20051;-66
2023/06/19 02:50:18;;;;;;;5.13;3.20;;;;;;;19.99;56.44;99395.72;10524018;28;20070;-65
2023/06/19 02:55:20;;;;;;;5.40;3.20;;;;;;;19.75;57.07;99411.53;10487706;28;20047;-66
2023/06/19 03:00:22;;;;;;;5.22;3.10;;;;;;;19.68;57.16;99411.38;10505455;28;20503;-66
2023/06/19 03:05:24;;;;;;;5.88;3.40;;;;;;;19.73;56.83;99418.81;10500932;28;20070;-66
2023/06/19 03:10:26;;;;;;;5.40;3.17;;;;;;;19.67;56.90;99414.16;10499283;28;20044;-66
2023/06/19 03:15:28;;;;;;;5.40;3.13;;;;;;;19.53;57.44;99422.75;10499410;28;20712;-66
2023/06/19 03:20:30;;;;;;;5.07;3.42;;;;;;;19.45;57.60;99419.09;10469649;28;20507;-66
2023/06/19 03:25:34;;;;;;;5.03;3.00;;;;;;;19.59;57.22;99433.56;10499763;28;20444;-66
2023/06/19 03:30:37;;;;;;;5.65;3.40;;;;;;;19.75;56.81;99433.59;10481777;28;20043;-66
2023/06/19 03:35:40;;;;;;;4.60;2.95;;;;;;;19.73;56.80;99440.06;10479598;28;20040;-66
2023/06/19 03:40:47;;;;;;;5.47;3.10;;;;;;;19.70;56.40;99449.19;10480021;28;20035;-65
2023/06/19 03:45:50;;;;;;;4.07;2.72;;;;;;;19.63;56.65;99455.28;10479658;28;20081;-66
2023/06/19 03:50:52;;;;;;;4.53;2.60;;;;;;;19.72;56.26;99451.69;10494404;28;20047;-66
2023/06/19 03:55:54;;;;;;;4.68;2.63;;;;;;;19.85;55.76;99463.50;10462414;28;20127;-66
2023/06/19 04:00:57;;;;;;;4.47;2.65;;;;;;;19.95;55.33;99458.09;10492972;28;20454;-66
2023/06/19 04:05:59;;;;;;;4.55;2.42;;;;;;;20.11;54.56;99453.59;10481637;28;20135;-66
2023/06/19 04:11:01;;;;;;;3.90;2.60;;;;;;;20.30;53.71;99463.09;10509065;28;20043;-67
2023/06/19 04:16:02;;;;;;;6.72;2.47;;;;;;;20.66;53.26;99467.13;10504509;28;20064;-66
2023/06/19 04:21:04;;;;;;;3.85;2.30;;;;;;;22.00;50.86;99485.72;10481222;28;20169;-66
2023/06/19 04:26:06;;;;;;;4.97;2.30;;;;;;;23.10;48.73;99480.72;10468917;28;20040;-66
2023/06/19 04:31:08;;;;;;;3.60;2.10;;;;;;;22.84;48.15;99500.81;10476156;28;20064;-66
2023/06/19 04:36:10;;;;;;;4.15;2.10;;;;;;;22.20;48.96;99494.09;10495027;28;20040;-66
2023/06/19 04:41:12;;;;;;;4.53;2.03;;;;;;;22.18;48.92;99491.63;10497956;28;20075;-66
2023/06/19 04:46:20;;;;;;;3.42;2.00;;;;;;;22.28;48.43;99484.22;10497836;28;20777;-67
2023/06/19 04:51:22;;;;;;;3.58;2.00;;;;;;;23.11;47.44;99476.19;10498000;28;20411;-66
2023/06/19 04:56:24;;;;;;;3.22;1.83;;;;;;;24.72;44.48;99468.75;10497938;28;20864;-67
2023/06/19 05:01:30;;;;;;;3.10;1.85;;;;;;;25.38;43.00;99476.25;10498213;28;20481;-66
2023/06/19 05:06:32;;;;;;;3.78;1.80;;;;;;;25.18;43.10;99474.44;10497332;28;20334;-66
2023/06/19 05:11:33;;;;;;;2.83;1.80;;;;;;;25.27;42.59;99474.09;10496155;28;20125;-66
2023/06/19 05:16:35;;;;;;;2.97;1.55;;;;;;;24.78;43.11;99503.56;10466522;28;20073;-67
2023/06/19 05:21:38;;;;;;;2.63;1.80;;;;;;;25.56;41.85;99491.78;10496796;28;20051;-67
2023/06/19 05:26:41;;;;;;;3.13;1.95;;;;;;;27.09;39.87;99483.72;10481413;28;20484;-67
2023/06/19 05:31:42;;;;;;;2.47;1.60;;;;;;;27.63;37.65;99478.03;10502664;28;20346;-67
2023/06/19 05:36:46;;;;;;;2.60;1.70;;;;;;;26.63;39.75;99493.63;10495950;28;20211;-66
2023/06/19 05:41:48;;;;;;;2.97;1.60;;;;;;;26.08;40.42;99492.03;10497579;28;20113;-66
2023/06/19 05:46:50;;;;;;;3.63;1.77;;;;;;;25.60;41.10;99496.56;10498063;28;20181;-66
2023/06/19 05:51:52;;;;;;;2.70;1.63;;;;;;;25.30;41.38;99500.47;10490602;28;20294;-67
2023/06/19 05:56:54;;;;;;;3.70;1.60;;;;;;;25.09;42.00;99520.09;10506464;28;20532;-66
2023/06/19 06:01:56;;;;;;;3.60;1.88;;;;;;;25.23;41.92;99530.88;10508036;28;20075;-66
2023/06/19 06:06:57;;;;;;;3.30;1.80;;;;;;;24.73;42.52;99538.09;10506796;28;20097;-66
2023/06/19 06:12:00;;;;;;;2.58;1.73;;;;;;;24.95;42.59;99539.75;10507060;28;20081;-67
2023/06/19 06:17:02;;;;;;;3.42;1.80;;;;;;;24.94;42.95;99540.75;10508718;28;20434;-66
2023/06/19 06:22:05;;;;;;;2.20;1.40;;;;;;;25.05;42.87;99548.25;10481613;28;20048;-66
2023/06/19 06:27:06;;;;;;;3.20;1.80;;;;;;;25.87;41.82;99535.03;10488196;28;20052;-67
2023/06/19 06:32:09;;;;;;;2.70;1.60;;;;;;;26.23;41.26;99545.50;10501585;28;20051;-67
2023/06/19 06:37:11;;;;;;;2.97;1.90;;;;;;;26.07;41.37;99557.41;10498363;28;20936;-67
2023/06/19 06:42:12;;;;;;;2.80;1.65;;;;;;;25.91;41.94;99555.03;10485833;28;20133;-67
2023/06/19 06:47:14;;;;;;;2.50;1.70;;;;;;;27.06;40.45;99558.44;10462382;28;20645;-67
2023/06/19 06:52:16;;;;;;;3.72;1.80;;;;;;;27.27;39.51;99569.03;10490890;28;20040;-66
2023/06/19 06:57:18;;;;;;;3.10;1.90;;;;;;;26.98;40.59;99572.06;10493011;28;20044;-66
2023/06/19 07:02:20;;;;;;;2.78;1.70;;;;;;;26.08;41.48;99579.69;10509647;28;20056;-67
2023/06/19 07:07:22;;;;;;;3.15;1.88;;;;;;;25.69;42.05;99581.06;10506946;28;20040;-67
2023/06/19 07:12:23;;;;;;;2.47;1.65;;;;;;;26.10;41.61;99596.38;10508589;28;20094;-66
2023/06/19 07:17:25;;;;;;;3.47;2.10;;;;;;;26.44;41.41;99596.31;10487774;28;20492;-66
2023/06/19 07:22:27;;;;;;;4.15;1.77;;;;;;;26.67;40.94;99594.94;10504959;28;20036;-67
2023/06/19 07:27:29;;;;;;;2.70;1.83;;;;;;;26.53;41.00;99597.75;10504539;28;20048;-67
2023/06/19 07:32:31;;;;;;;2.92;1.70;;;;;;;26.70;40.75;99607.13;10505800;28;20135;-64
2023/06/19 07:37:33;;;;;;;2.58;1.48;;;;;;;27.11;40.41;99605.13;10488435;28;20080;-64
2023/06/19 07:42:36;;;;;;;2.40;1.48;;;;;;;27.47;39.58;99610.94;10502139;28;20169;-64
2023/06/19 07:47:38;;;;;;;2.65;1.60;;;;;;;27.64;39.53;99605.97;10482760;28;20312;-64
2023/06/19 07:52:40;;;;;;;3.53;1.85;;;;;;;28.85;38.39;99600.59;10504271;28;20050;-65
2023/06/19 07:57:41;;;;;;;2.33;1.50;;;;;;;29.71;36.79;99595.34;10507638;28;20047;-65
2023/06/19 08:02:43;;;;;;;2.88;1.67;;;;;;;30.49;35.91;99580.97;10509995;28;20063;-65
2023/06/19 08:07:45;;;;;;;3.20;1.67;;;;;;;31.00;35.17;99587.72;10500443;28;20044;-65
2023/06/19 08:12:47;;;;;;;4.15;1.80;;;;;;;31.06;34.08;99594.91;10506749;28;20040;-65
2023/06/19 08:17:51;;;;;;;4.00;1.77;;;;;;;32.12;33.19;99595.53;10506207;28;20047;-65
2023/06/19 08:22:52;;;;;;;2.80;1.60;;;;;;;32.34;31.73;99592.97;10497585;28;20117;-65
2023/06/19 08:27:54;;;;;;;2.55;1.60;;;;;;;31.57;32.72;99595.09;10498841;28;21135;-65
2023/06/19 08:32:56;;;;;;;2.50;1.60;;;;;;;30.90;32.31;99614.44;10504014;28;20206;-65
2023/06/19 08:37:58;;;;;;;4.28;1.73;;;;;;;30.68;33.34;99603.34;10499252;28;20051;-65
2023/06/19 08:43:00;;;;;;;3.10;1.70;;;;;;;30.97;32.91;99610.63;10505633;28;20155;-65
2023/06/19 08:48:05;;;;;;;2.20;1.50;;;;;;;30.64;33.02;99608.38;10501405;28;20525;-65
2023/06/19 08:53:13;;;;;;;3.00;1.67;;;;;;;29.11;34.44;99612.22;10504162;28;20090;-66
2023/06/19 08:58:23;;;;;;;2.58;1.67;;;;;;;29.66;33.70;99608.66;10503110;28;20047;-66
2023/06/19 09:03:25;;;;;;;2.90;1.63;;;;;;;29.62;34.11;99597.47;10505197;28;20052;-65
2023/06/19 09:08:27;;;;;;;2.78;1.73;;;;;;;28.26;35.48;99608.91;10480317;28;20121;-66
2023/06/19 09:13:31;;;;;;;2.90;1.70;;;;;;;28.14;35.65;99612.47;10459590;28;20109;-65
2023/06/19 09:18:48;;;;;;;2.90;1.80;;;;;;;28.93;34.75;99605.72;10482936;28;20779;-66
2023/06/19 09:23:52;;;;;;;3.20;1.80;;;;;;;29.23;34.86;99614.00;10486483;28;20229;-65
2023/06/19 09:29:15;;;;;;;2.92;1.60;;;;;;;29.84;33.23;99614.06;10478587;28;20046;-65
2023/06/19 09:34:21;;;;;;;2.67;1.70;;;;;;;30.54;32.16;99601.84;10495014;28;20063;-66
2023/06/19 09:39:28;;;;;;;2.85;1.60;;;;;;;30.75;31.93;99589.72;10478031;28;20040;-65
2023/06/19 09:44:39;;;;;;;2.90;1.70;;;;;;;30.56;31.61;99589.78;10502206;28;20425;-64
2023/06/19 09:49:55;;;;;;;2.53;1.60;;;;;;;29.97;32.26;99589.69;10501593;28;20564;-65
2023/06/19 09:55:00;;;;;;;2.45;1.60;;;;;;;30.15;32.49;99600.47;10500972;28;21032;-65
2023/06/19 10:05:14;;;;;;;3.03;1.83;;;;;;;30.65;32.10;99598.41;10492288;28;20044;-65
2023/06/19 10:10:27;;;;;;;2.05;1.50;;;;;;;30.92;30.59;99593.44;10483656;28;20483;-65
2023/06/19 10:15:34;;;;;;;2.38;1.60;;;;;;;30.90;31.68;99593.66;10496403;28;20535;-65
2023/06/19 10:20:39;;;;;;;2.60;1.42;;;;;;;31.48;30.29;99604.56;10482231;28;20106;-65
2023/06/19 10:25:59;;;;;;;2.05;1.38;;;;;;;31.73;29.19;99599.78;10496572;28;20078;-65
2023/06/19 10:31:06;;;;;;;2.70;1.60;;;;;;;31.72;29.28;99584.63;10500791;28;20328;-65
2023/06/19 10:50:56;;;;;;;2.38;1.27;;;;;;;29.62;32.07;99578.63;10540415;27;20180;-65
2023/06/19 10:56:01;;;;;;;2.78;1.40;;;;;;;30.09;31.71;99578.97;10527246;28;20040;-65
2023/06/19 11:01:03;;;;;;;2.60;1.40;;;;;;;30.25;31.28;99563.00;10529261;28;20048;-65
2023/06/19 11:06:05;;;;;;;2.45;1.45;;;;;;;29.94;31.18;99565.88;10533602;28;20116;-65
2023/06/19 11:11:07;;;;;;;2.78;1.40;;;;;;;29.82;31.35;99563.09;10534113;28;20513;-65
2023/06/19 11:16:09;;;;;;;2.50;1.40;;;;;;;30.00;31.14;99564.97;10534392;28;20127;-65
2023/06/19 11:21:11;;;;;;;5.03;1.52;;;;;;;29.96;31.15;99569.16;10534651;28;20505;-65
2023/06/19 11:26:13;;;;;;;2.72;1.50;;;;;;;29.88;31.00;99570.28;10531015;28;20492;-65
2023/06/19 11:31:15;;;;;;;3.13;1.50;;;;;;;30.06;30.69;99564.06;10533452;28;20410;-65
2023/06/19 11:36:17;;;;;;;2.15;1.40;;;;;;;30.21;30.49;99559.13;10530821;28;20044;-65
2023/06/19 11:41:30;;;;;;;2.88;1.58;;;;;;;30.42;29.76;99560.47;10508786;28;20044;-65
2023/06/19 11:46:34;;;;;;;2.67;1.67;;;;;;;30.48;29.30;99560.41;10534663;28;20052;-65
2023/06/19 11:51:36;;;;;;;2.08;1.33;;;;;;;30.09;29.80;99555.50;10533016;28;21480;-65
2023/06/19 11:56:39;;;;;;;1.85;1.38;;;;;;;29.84;30.18;99546.69;10547316;28;20109;-65
2023/06/19 12:01:41;;;;;;;2.85;1.65;;;;;;;29.88;29.62;99531.69;10510485;28;20078;-65
2023/06/19 12:06:43;;;;;;;2.15;1.50;;;;;;;29.51;30.38;99543.50;10500957;28;20134;-65
2023/06/19 12:11:45;;;;;;;2.05;1.30;;;;;;;29.29;30.65;99540.38;10502162;28;20466;-65
2023/06/19 12:16:47;;;;;;;2.72;1.45;;;;;;;28.99;30.93;99536.72;10502361;28;20127;-65
2023/06/19 12:21:49;;;;;;;2.72;1.60;;;;;;;28.97;30.88;99544.19;10468168;28;20158;-65
2023/06/19 12:26:52;;;;;;;2.53;1.45;;;;;;;29.02;30.91;99539.78;10504067;28;20571;-65
2023/06/19 12:32:01;;;;;;;2.50;1.42;;;;;;;29.00;30.88;99541.88;10503940;28;20058;-65
2023/06/19 12:37:02;;;;;;;;;;;;;;;29.04;30.83;99537.69;10502163;28;20309;-65
2023/06/19 12:42:04;;;;;;;2.70;1.42;;;;;;;29.25;30.89;99535.66;10506976;28;20436;-65
2023/06/19 12:47:07;;;;;;;2.30;1.40;;;;;;;29.50;30.49;99539.19;10487981;28;20087;-65
2023/06/19 12:52:09;;;;;;;2.03;1.30;;;;;;;29.76;30.31;99541.59;10505246;28;20488;-65
2023/06/19 12:57:12;;;;;;;2.42;1.58;;;;;;;29.57;30.37;99551.53;10502834;28;20040;-65
2023/06/19 13:02:14;;;;;;;7.40;2.20;;;;;;;29.31;30.96;99537.47;10505464;28;20051;-65
2023/06/19 13:07:16;;;;;;;3.05;1.60;;;;;;;29.50;31.15;99529.19;10501609;28;20083;-65
2023/06/19 13:12:18;;;;;;;3.45;1.60;;;;;;;29.76;30.88;99528.09;10503364;28;20130;-64
2023/06/19 13:17:20;;;;;;;5.65;1.80;;;;;;;29.81;30.77;99525.53;10504912;28;20048;-64
2023/06/19 13:22:22;;;;;;;2.70;1.40;;;;;;;29.79;30.88;99516.84;10494918;28;20059;-63
2023/06/19 13:27:26;;;;;;;2.80;1.60;;;;;;;29.70;31.12;99512.84;10501629;28;20089;-64
2023/06/19 13:32:28;;;;;;;2.88;1.70;;;;;;;30.14;30.85;99512.50;10497293;28;20543;-64
2023/06/19 13:37:30;;;;;;;4.55;1.80;;;;;;;30.28;30.75;99505.03;10482094;28;20296;-64
2023/06/19 13:42:35;;;;;;;15.02;2.90;;;;;;;29.86;31.23;99509.53;10500757;28;20142;-64
2023/06/19 13:47:37;;;;;;;7.32;2.03;;;;;;;29.48;31.35;99503.56;10503480;28;20080;-64
2023/06/19 13:52:38;;;;;;;11.27;2.22;;;;;;;29.87;31.08;99486.91;10497254;28;20047;-64
2023/06/19 13:57:41;;;;;;;2.95;1.70;;;;;;;29.99;31.22;99485.09;10502928;28;20421;-64
2023/06/19 14:02:43;;;;;;;2.45;1.60;;;;;;;29.94;30.97;99487.69;10498891;28;20189;-64
2023/06/19 14:07:45;;;;;;;3.80;1.88;;;;;;;29.97;31.09;99479.13;10504183;28;20139;-64
2023/06/19 14:12:47;;;;;;;2.92;1.48;;;;;;;30.21;30.55;99469.25;10506313;28;20381;-66
2023/06/19 14:17:49;;;;;;;3.60;1.58;;;;;;;30.68;28.77;99468.38;10502185;28;20040;-66
2023/06/19 14:22:51;;;;;;;1.83;1.27;;;;;;;30.50;29.60;99460.31;10486327;28;20101;-66
2023/06/19 14:27:52;;;;;;;2.65;1.27;;;;;;;30.56;29.17;99452.13;10496420;28;20043;-66
2023/06/19 14:32:54;;;;;;;2.45;1.50;;;;;;;30.81;28.97;99451.09;10500507;28;20170;-66
2023/06/19 14:37:56;;;;;;;1.95;1.40;;;;;;;30.58;28.45;99460.81;10500131;28;20044;-66
2023/06/19 14:42:58;;;;;;;2.67;1.60;;;;;;;30.33;28.89;99465.56;10502862;28;20044;-66
2023/06/19 14:48:00;;;;;;;2.13;1.40;;;;;;;30.72;28.56;99466.84;10501337;28;20463;-65
2023/06/19 14:53:02;;;;;;;2.63;1.50;;;;;;;31.10;28.40;99472.66;10501756;28;20044;-66
2023/06/19 14:58:05;;;;;;;2.10;1.27;;;;;;;31.09;27.54;99459.38;10494338;28;20063;-66
2023/06/19 15:03:07;;;;;;;1.73;1.17;;;;;;;30.85;28.03;99458.50;10500551;28;20079;-66
2023/06/19 15:08:10;;;;;;;2.60;1.60;;;;;;;30.56;28.91;99457.53;10497991;28;20154;-66
2023/06/19 15:13:12;;;;;;;4.07;1.52;;;;;;;30.52;28.75;99463.63;10501186;28;20067;-66
2023/06/19 15:18:14;;;;;;;3.03;1.38;;;;;;;30.36;28.55;99459.69;10483278;28;20093;-66
2023/06/19 15:23:17;;;;;;;1.83;1.30;;;;;;;30.53;28.11;99459.88;10495158;28;20067;-66
2023/06/19 15:28:19;;;;;;;2.08;1.23;;;;;;;30.62;27.83;99459.28;10499461;28;20048;-66
2023/06/19 15:33:21;;;;;;;2.60;1.50;;;;;;;31.08;27.46;99465.81;10499253;28;20194;-66
2023/06/19 15:38:23;;;;;;;1.70;1.10;;;;;;;31.43;26.47;99451.22;10506665;28;20055;-66
2023/06/19 15:43:28;;;;;;;1.70;1.20;;;;;;;31.67;26.75;99453.91;10509170;28;20040;-66
2023/06/19 15:48:30;;;;;;;2.10;1.30;;;;;;;31.76;26.54;99439.75;10507536;28;20649;-66
2023/06/19 15:53:32;;;;;;;2.50;1.40;;;;;;;31.91;26.15;99437.34;10509178;28;20127;-66
2023/06/19 15:58:34;;;;;;;1.52;1.17;;;;;;;31.82;26.27;99435.28;10507515;28;20514;-66
2023/06/19 16:03:35;;;;;;;1.90;1.20;;;;;;;31.99;26.39;99428.06;10509222;28;20080;-66
2023/06/19 16:08:38;;;;;;;2.88;1.10;;;;;;;31.84;26.26;99422.34;10505660;28;20055;-65
2023/06/19 16:13:39;;;;;;;1.58;1.13;;;;;;;31.33;26.47;99423.16;10502575;28;20135;-66
2023/06/19 16:18:41;;;;;;;2.35;1.23;;;;;;;31.43;26.35;99412.56;10503615;28;20134;-66
2023/06/19 16:23:43;;;;;;;2.53;1.40;;;;;;;31.21;26.90;99414.25;10508721;28;20077;-65
2023/06/19 16:28:45;;;;;;;1.77;1.27;;;;;;;31.11;26.87;99416.75;10507316;28;20854;-66
2023/06/19 16:33:47;;;;;;;2.20;1.35;;;;;;;31.02;26.80;99416.28;10508282;28;20072;-66
2023/06/19 16:38:49;;;;;;;2.75;1.30;;;;;;;31.03;26.79;99417.91;10484947;28;20177;-66
2023/06/19 16:43:52;;;;;;;1.85;1.20;;;;;;;31.07;26.72;99427.19;10506433;28;20131;-65
2023/06/19 16:48:53;;;;;;;2.40;1.10;;;;;;;30.81;26.71;99418.69;10505226;28;20078;-65
2023/06/19 16:53:55;;;;;;;1.98;1.25;;;;;;;30.82;26.84;99418.50;10469854;28;20492;-65
2023/06/19 16:58:57;;;;;;;1.83;1.10;;;;;;;30.73;26.69;99421.75;10503724;28;20035;-65
2023/06/19 17:03:59;;;;;;;1.55;0.90;;;;;;;30.77;26.63;99412.97;10504247;28;20137;-65
2023/06/19 17:09:02;;;;;;;1.85;1.10;;;;;;;30.65;26.77;99421.06;10472044;28;20147;-65
2023/06/19 17:14:04;;;;;;;2.03;1.20;;;;;;;30.29;26.32;99415.81;10493478;28;20072;-65
2023/06/19 17:19:06;;;;;;;1.73;1.08;;;;;;;29.95;26.59;99419.19;10462235;28;20131;-65
2023/06/19 17:24:08;;;;;;;2.42;1.10;;;;;;;29.85;26.67;99414.34;10475525;28;20036;-65
2023/06/19 17:29:12;;;;;;;2.25;1.30;;;;;;;29.53;27.27;99420.16;10514396;27;20131;-65
2023/06/19 17:34:14;;;;;;;2.20;1.40;;;;;;;29.27;27.86;99426.66;10502765;28;20621;-65
2023/06/19 17:39:16;;;;;;;2.58;1.20;;;;;;;29.03;28.15;99430.22;10479511;28;20506;-65
2023/06/19 17:44:18;;;;;;;2.15;1.08;;;;;;;28.75;28.29;99438.72;10503489;28;20170;-65
2023/06/19 17:49:22;;;;;;;1.17;1.02;;;;;;;28.78;28.45;99442.84;10497226;28;20204;-65
2023/06/19 17:54:24;;;;;;;1.95;1.20;;;;;;;28.81;28.15;99448.59;10498830;28;20076;-65
2023/06/19 17:59:26;;;;;;;2.25;1.30;;;;;;;28.86;28.34;99448.81;10498279;28;20079;-65
2023/06/19 18:04:28;;;;;;;2.80;1.50;;;;;;;28.88;28.66;99443.19;10498650;28;20078;-65
2023/06/19 18:09:30;;;;;;;3.20;1.27;;;;;;;28.84;29.23;99447.34;10492723;28;20121;-65
2023/06/19 18:14:32;;;;;;;2.10;1.20;;;;;;;28.85;29.01;99457.09;10477933;28;20046;-65
2023/06/19 18:19:34;;;;;;;2.30;1.30;;;;;;;28.82;29.50;99447.56;10475476;28;20630;-65
2023/06/19 18:24:36;;;;;;;1.55;1.20;;;;;;;28.84;29.70;99456.28;10501092;28;20066;-65
2023/06/19 18:29:38;;;;;;;1.52;1.13;;;;;;;28.73;30.21;99445.38;10493557;28;20522;-65
2023/06/19 18:34:40;;;;;;;2.00;1.20;;;;;;;28.49;30.52;99444.31;10500293;28;20094;-65
2023/06/19 18:39:41;;;;;;;2.30;1.30;;;;;;;28.28;31.26;99455.41;10495416;28;20219;-66
2023/06/19 18:44:43;;;;;;;1.30;1.00;;;;;;;28.12;31.47;99459.44;10504257;28;20448;-65
2023/06/19 18:49:45;;;;;;;2.13;1.20;;;;;;;28.01;31.87;99459.31;10498331;28;20048;-65
2023/06/19 18:54:47;;;;;;;1.65;1.02;;;;;;;27.89;32.30;99442.22;10514981;28;20040;-66
2023/06/19 18:59:49;;;;;;;1.30;1.02;;;;;;;27.79;32.38;99449.91;10480751;28;20683;-66
2023/06/19 19:04:51;;;;;;;2.53;1.38;;;;;;;27.63;32.65;99451.16;10494385;28;20411;-66
2023/06/19 19:09:53;;;;;;;3.05;1.40;;;;;;;27.50;33.34;99454.72;10492591;28;20431;-65
2023/06/19 19:14:54;;;;;;;1.75;1.17;;;;;;;27.20;34.21;99456.25;10503624;28;20097;-66
2023/06/19 19:19:56;;;;;;;1.98;1.15;;;;;;;26.86;34.72;99464.53;10511676;28;20097;-66
2023/06/19 19:24:58;;;;;;;2.65;1.20;;;;;;;26.41;35.22;99468.81;10510575;28;20169;-66
2023/06/19 19:30:00;;;;;;;2.38;1.50;;;;;;;25.97;35.55;99470.34;10507605;28;20127;-66
2023/06/19 19:35:03;;;;;;;2.10;1.30;;;;;;;25.87;36.04;99474.19;10511352;28;20419;-65
2023/06/19 19:40:05;;;;;;;2.25;1.30;;;;;;;25.57;36.35;99478.19;10496694;28;20121;-65
2023/06/19 19:45:07;;;;;;;2.45;1.38;;;;;;;25.57;36.74;99493.47;10511454;28;20068;-65
2023/06/19 19:50:10;;;;;;;1.88;1.23;;;;;;;25.66;36.61;99490.41;10492564;28;20147;-65
2023/06/19 19:55:13;;;;;;;1.83;1.20;;;;;;;25.61;37.06;99495.53;10514384;28;20125;-65
2023/06/19 20:00:15;;;;;;;2.92;1.48;;;;;;;25.53;37.53;99498.34;10511196;28;20044;-65
2023/06/19 20:05:17;;;;;;;2.20;1.30;;;;;;;25.13;38.16;99509.81;10512863;28;20044;-65
2023/06/19 20:10:19;;;;;;;2.35;1.40;;;;;;;24.90;38.57;99510.03;10510095;28;20083;-65
2023/06/19 20:15:21;;;;;;;2.53;1.60;;;;;;;24.89;38.79;99508.41;10510969;28;20307;-65
2023/06/19 20:20:22;;;;;;;3.58;1.98;;;;;;;24.72;38.88;99525.75;10510344;28;20135;-66
2023/06/19 20:25:24;;;;;;;3.08;1.83;;;;;;;24.67;39.34;99519.28;10510259;28;20079;-67
2023/06/19 20:30:26;;;;;;;2.78;1.77;;;;;;;24.31;40.01;99522.00;10509031;28;20040;-68
2023/06/19 20:35:28;;;;;;;2.85;1.60;;;;;;;23.78;41.35;99525.84;10494227;28;20039;-66
2023/06/19 20:40:30;;;;;;;3.88;1.80;;;;;;;23.78;41.51;99511.69;10508246;28;20060;-67
2023/06/19 20:45:32;;;;;;;2.70;1.50;;;;;;;23.87;41.25;99516.72;10510618;28;20419;-68
2023/06/19 20:50:34;;;;;;;2.55;1.60;;;;;;;23.81;41.23;99511.31;10506309;28;20710;-67
2023/06/19 20:55:36;;;;;;;2.22;1.40;;;;;;;23.79;41.67;99516.84;10504018;28;21274;-68
2023/06/19 21:00:38;;;;;;;2.63;1.50;;;;;;;23.76;41.96;99517.19;10510037;28;20133;-68
2023/06/19 21:05:40;;;;;;;3.05;1.60;;;;;;;23.80;42.02;99517.69;10505293;28;20085;-67
2023/06/19 21:10:42;;;;;;;2.25;1.45;;;;;;;23.76;42.20;99513.72;10508424;28;20142;-67
2023/06/19 21:15:44;;;;;;;2.22;1.50;;;;;;;23.67;42.26;99507.66;10509119;28;20047;-67
2023/06/19 21:20:48;;;;;;;4.75;1.70;;;;;;;23.54;42.65;99515.47;10508542;28;20675;-67
2023/06/19 21:25:50;;;;;;;4.43;1.90;;;;;;;23.38;42.94;99510.28;10508874;28;20536;-67
2023/06/19 21:30:51;;;;;;;3.53;1.77;;;;;;;23.28;42.99;99507.88;10507327;28;20047;-67
2023/06/19 21:35:53;;;;;;;2.92;1.38;;;;;;;23.33;43.25;99521.50;10491705;28;20121;-67
2023/06/19 21:40:55;;;;;;;2.63;1.60;;;;;;;23.24;43.05;99513.75;10508049;28;20501;-67
2023/06/19 21:45:58;;;;;;;2.92;1.60;;;;;;;22.68;43.71;99513.25;10489465;28;20423;-67
2023/06/19 21:51:00;;;;;;;2.42;1.38;;;;;;;22.73;43.95;99514.53;10508054;28;20415;-67
2023/06/19 21:56:03;;;;;;;2.75;1.67;;;;;;;22.81;43.81;99498.50;10507418;28;21207;-67
2023/06/19 22:01:05;;;;;;;3.05;1.50;;;;;;;22.55;44.29;99502.38;10508199;28;20113;-67
2023/06/19 22:06:06;;;;;;;2.08;1.40;;;;;;;22.68;44.37;99499.91;10506663;28;20313;-67
2023/06/19 22:11:08;;;;;;;2.72;1.40;;;;;;;22.76;44.39;99509.69;10507988;28;20139;-67
2023/06/19 22:16:10;;;;;;;1.88;1.27;;;;;;;22.69;44.67;99504.25;10509321;28;20127;-67
2023/06/19 22:21:12;;;;;;;2.67;1.50;;;;;;;22.61;44.72;99487.47;10507912;28;20052;-67
2023/06/19 22:26:14;;;;;;;2.60;1.45;;;;;;;22.60;44.71;99494.66;10508035;28;20094;-66
2023/06/19 22:31:15;;;;;;;3.08;1.70;;;;;;;22.52;44.92;99486.72;10508034;28;20151;-67
2023/06/19 22:36:17;;;;;;;2.80;1.50;;;;;;;22.42;45.10;99491.44;10508418;28;20039;-67
2023/06/19 22:41:19;;;;;;;2.65;1.45;;;;;;;22.45;45.17;99485.75;10486531;28;20101;-67
2023/06/19 22:46:21;;;;;;;2.28;1.40;;;;;;;22.48;45.37;99480.09;10507921;28;20056;-67
2023/06/19 22:51:23;;;;;;;3.53;1.60;;;;;;;22.44;45.42;99481.44;10489488;28;20044;-67
2023/06/19 22:56:25;;;;;;;2.47;1.63;;;;;;;22.44;45.40;99484.13;10507436;28;20488;-67
2023/06/19 23:01:30;;;;;;;3.20;1.90;;;;;;;22.44;45.40;99483.28;10488457;28;20477;-67
2023/06/19 23:06:41;;;;;;;3.05;1.55;;;;;;;22.48;45.45;99482.75;10507345;28;20492;-67
2023/06/19 23:11:44;;;;;;;2.45;1.42;;;;;;;22.48;45.58;99487.25;10504430;28;20073;-67
2023/06/19 23:16:46;;;;;;;2.15;1.38;;;;;;;22.33;46.03;99487.19;10506462;28;20335;-67
2023/06/19 23:21:48;;;;;;;3.03;1.63;;;;;;;22.27;46.15;99498.53;10504934;28;20359;-67
2023/06/19 23:26:49;;;;;;;2.35;1.45;;;;;;;22.28;46.04;99500.22;10508706;28;20039;-68
2023/06/19 23:31:51;;;;;;;2.63;1.50;;;;;;;22.26;46.10;99496.06;10505527;28;20044;-67
2023/06/19 23:36:53;;;;;;;2.78;1.48;;;;;;;22.28;46.05;99494.06;10506987;28;20052;-67
2023/06/19 23:41:55;;;;;;;2.50;1.50;;;;;;;22.37;46.04;99498.34;10501377;28;20087;-68
2023/06/19 23:46:56;;;;;;;2.35;1.55;;;;;;;22.35;47.77;99506.47;10502876;28;20442;-67